Terminal Aerodrome Forecast
Issued by NWS Pendleton, OR

Home | Current Version | Previous Version | Text Only | Print | Product List | Glossary On
Versions: 1 2 3 4 5 6 7 8 9 10 11 12 13 14 15 16 17 18 19 20 21 22 23 24 25 26 27 28 29 30 31 32 33 34 35 36 37 38 39 40
000
FTUS46 KPDT 210200 AAA
TAFPDT
TAF AMD
KPDT 210209Z 2102/2124 31004KT 1/2SM FZFG OVC002
      TEMPO 2102/2104 1/4SM FZFG
     FM211500 14005KT 4SM BR BKN004 OVC070
     FM212000 14007KT 6SM BR BKN080 OVC150=

USA.gov is the U.S. government's official web portal to all federal, state and local government web resources and services.